Star Tannery, Virginia
Current Conditions -  °F | °C
As of 9:15 AM on Monday 22 Dec 2014 (Local Time) from KFRR Reporting Station
Overcast Overcast  
Wind Chill: 32°   Ceiling: 3400
Heat Index: 32°   Visibility: 5mi
Dew Point: 27°   Wind: 0mph
Humidity: 80%   Direction: NA
Pressure: 30.25"   Gusts: NA
Location:  39.08°N, 78.44°W
Report Text: KFRR 221415Z AUTO 00000KT 5SM OVC034 00/M03 A3025 RMK AO1
Loading
Personal Weather Stations






























Interactive Weather Map New forecast layout! Learn more

10-Day Weather Forecast

Advertisements
Track Severe Weather on mobile